HS Bizet — A8MI3 — position and weather

sailwx.info

Track history (hours):
 
Tides and Currents Weather Stations Pressure Air Temp Water Temp Dewpoint Dewpoint Depression Visibility Wind Speed Wind Dir Waves Ship Positions

HS Bizet

Last reported at 2015-Aug-31 18:16 UTC. Time now 2015-Sep-05 05:51 UTC.
Position S 35°54' E 175°37'.

Length 246 m; draft 9.8 m.

Type: Ship (hazmat cat A). MMSI: 636091349.

Date/timePositionNaut miles runAvg speedWind from/ knotsBaromVisibWave heightAir tempDewpointWater temp
2015-Aug-31 18:16S 35°54' E 175°37'  
2015-Aug-26 17:33S 37°20' E 150°14'1818.2
2015-Aug-26 16:33S 37°36' E 150°03'1918.8
2015-Aug-26 15:33S 37°48' E 149°45'2620.6
2015-Aug-26 14:17S 38°05' E 149°19'1419.8
2015-Aug-26 13:34S 38°14' E 149°05'8719.5
2015-Aug-26 09:06S 38°60' E 147°31'1119.7
2015-Aug-26 08:34S 39°04' E 147°18'2019.6
2015-Aug-26 07:34S 39°10' E 146°54'2019.5
2015-Aug-26 06:34S 39°17' E 146°31'2019.5
2015-Aug-26 05:34S 39°13' E 146°06'2020.0
2015-Aug-26 04:34S 39°02' E 145°44'7 0.2
2015-Aug-24 14:33S 39°06' E 145°52'1615.6
2015-Aug-24 13:33S 39°12' E 146°10'1616.2
2015-Aug-24 12:34S 39°09' E 146°31'1616.3
2015-Aug-24 11:33S 39°04' E 146°51'1616.0
2015-Aug-24 10:33S 39°01' E 147°11'  
Track history (hours):
 
Tides and Currents Weather Stations Pressure Air Temp Water Temp Dewpoint Dewpoint Depression Visibility Wind Speed Wind Dir Waves Ship Positions

HS Bizet

Last reported at 2015-Aug-31 18:16 UTC. Time now 2015-Sep-05 05:51 UTC.
Position S 35°54' E 175°37'.

Length 246 m; draft 9.8 m.

Type: Ship (hazmat cat A). MMSI: 636091349.

Date/timePositionNaut miles runAvg speedWind from/ knotsBaromVisibWave heightAir tempDewpointWater temp
2015-Aug-31 18:16S 35°54' E 175°37'  
2015-Aug-26 17:33S 37°20' E 150°14'1818.2
2015-Aug-26 16:33S 37°36' E 150°03'1918.8
2015-Aug-26 15:33S 37°48' E 149°45'2620.6
2015-Aug-26 14:17S 38°05' E 149°19'1419.8
2015-Aug-26 13:34S 38°14' E 149°05'8719.5
2015-Aug-26 09:06S 38°60' E 147°31'1119.7
2015-Aug-26 08:34S 39°04' E 147°18'2019.6
2015-Aug-26 07:34S 39°10' E 146°54'2019.5
2015-Aug-26 06:34S 39°17' E 146°31'2019.5
2015-Aug-26 05:34S 39°13' E 146°06'2020.0
2015-Aug-26 04:34S 39°02' E 145°44'7 0.2
2015-Aug-24 14:33S 39°06' E 145°52'1615.6
2015-Aug-24 13:33S 39°12' E 146°10'1616.2
2015-Aug-24 12:34S 39°09' E 146°31'1616.3
2015-Aug-24 11:33S 39°04' E 146°51'1616.0
2015-Aug-24 10:33S 39°01' E 147°11'  

Dump ship's entire track history